sensor_id;sensor_type;location;lat;lon;timestamp;P1;durP1;ratioP1;P2;durP2;ratioP2
28988;SDS011;16089;59.952;10.818;2023-02-03T00:01:24;6.15;;;3.00;;
28988;SDS011;16089;59.952;10.818;2023-02-03T00:03:50;7.57;;;3.25;;
28988;SDS011;16089;59.952;10.818;2023-02-03T00:06:17;14.20;;;4.10;;
28988;SDS011;16089;59.952;10.818;2023-02-03T00:08:43;8.43;;;3.83;;
28988;SDS011;16089;59.952;10.818;2023-02-03T00:11:10;9.95;;;3.40;;
28988;SDS011;16089;59.952;10.818;2023-02-03T00:13:38;11.75;;;4.22;;
28988;SDS011;16089;59.952;10.818;2023-02-03T00:16:04;7.53;;;3.17;;
28988;SDS011;16089;59.952;10.818;2023-02-03T00:18:31;9.65;;;4.20;;
28988;SDS011;16089;59.952;10.818;2023-02-03T00:20:58;7.50;;;3.40;;
28988;SDS011;16089;59.952;10.818;2023-02-03T00:23:24;10.38;;;3.95;;
28988;SDS011;16089;59.952;10.818;2023-02-03T00:25:54;9.32;;;4.30;;
28988;SDS011;16089;59.952;10.818;2023-02-03T00:28:20;9.35;;;4.55;;
28988;SDS011;16089;59.952;10.818;2023-02-03T00:30:48;15.75;;;5.60;;
28988;SDS011;16089;59.952;10.818;2023-02-03T00:33:18;10.73;;;4.68;;
28988;SDS011;16089;59.952;10.818;2023-02-03T00:35:44;11.73;;;4.88;;
28988;SDS011;16089;59.952;10.818;2023-02-03T00:38:10;9.20;;;4.40;;
28988;SDS011;16089;59.952;10.818;2023-02-03T00:40:37;9.45;;;4.57;;
28988;SDS011;16089;59.952;10.818;2023-02-03T00:43:03;9.13;;;4.28;;
28988;SDS011;16089;59.952;10.818;2023-02-03T00:45:29;9.93;;;4.28;;
28988;SDS011;16089;59.952;10.818;2023-02-03T00:47:57;10.75;;;4.40;;
28988;SDS011;16089;59.952;10.818;2023-02-03T00:50:23;10.50;;;4.18;;
28988;SDS011;16089;59.952;10.818;2023-02-03T00:52:50;11.35;;;4.25;;
28988;SDS011;16089;59.952;10.818;2023-02-03T00:55:16;8.38;;;4.28;;
28988;SDS011;16089;59.952;10.818;2023-02-03T00:57:42;10.10;;;4.53;;
28988;SDS011;16089;59.952;10.818;2023-02-03T01:00:09;9.07;;;4.47;;
28988;SDS011;16089;59.952;10.818;2023-02-03T01:02:36;9.57;;;4.00;;
28988;SDS011;16089;59.952;10.818;2023-02-03T01:05:04;11.43;;;3.50;;
28988;SDS011;16089;59.952;10.818;2023-02-03T01:07:30;6.97;;;3.00;;
28988;SDS011;16089;59.952;10.818;2023-02-03T01:09:57;10.43;;;4.00;;
28988;SDS011;16089;59.952;10.818;2023-02-03T01:12:23;10.98;;;4.07;;
28988;SDS011;16089;59.952;10.818;2023-02-03T01:14:50;9.10;;;4.13;;
28988;SDS011;16089;59.952;10.818;2023-02-03T01:17:16;10.73;;;4.63;;
28988;SDS011;16089;59.952;10.818;2023-02-03T01:19:42;9.30;;;3.95;;
28988;SDS011;16089;59.952;10.818;2023-02-03T01:22:10;7.20;;;3.65;;
28988;SDS011;16089;59.952;10.818;2023-02-03T01:24:37;10.43;;;4.00;;
28988;SDS011;16089;59.952;10.818;2023-02-03T01:27:03;9.65;;;3.63;;
28988;SDS011;16089;59.952;10.818;2023-02-03T01:29:30;9.60;;;3.83;;
28988;SDS011;16089;59.952;10.818;2023-02-03T01:31:56;6.78;;;3.58;;
28988;SDS011;16089;59.952;10.818;2023-02-03T01:34:23;10.27;;;3.53;;
28988;SDS011;16089;59.952;10.818;2023-02-03T01:36:49;7.97;;;3.75;;
28988;SDS011;16089;59.952;10.818;2023-02-03T01:39:17;6.82;;;3.30;;
28988;SDS011;16089;59.952;10.818;2023-02-03T01:41:43;7.93;;;3.55;;
28988;SDS011;16089;59.952;10.818;2023-02-03T01:46:55;8.15;;;3.88;;
28988;SDS011;16089;59.952;10.818;2023-02-03T01:49:23;6.95;;;3.33;;
28988;SDS011;16089;59.952;10.818;2023-02-03T01:51:50;7.60;;;3.15;;
28988;SDS011;16089;59.952;10.818;2023-02-03T01:54:19;6.65;;;3.47;;
28988;SDS011;16089;59.952;10.818;2023-02-03T01:56:49;7.75;;;3.22;;
28988;SDS011;16089;59.952;10.818;2023-02-03T01:59:16;7.32;;;3.08;;
28988;SDS011;16089;59.952;10.818;2023-02-03T02:01:44;8.07;;;2.78;;
28988;SDS011;16089;59.952;10.818;2023-02-03T02:04:11;7.47;;;2.90;;
28988;SDS011;16089;59.952;10.818;2023-02-03T02:06:37;4.97;;;2.30;;
28988;SDS011;16089;59.952;10.818;2023-02-03T02:09:04;5.28;;;2.40;;
28988;SDS011;16089;59.952;10.818;2023-02-03T02:11:32;7.57;;;2.10;;
28988;SDS011;16089;59.952;10.818;2023-02-03T02:13:59;5.75;;;2.42;;
28988;SDS011;16089;59.952;10.818;2023-02-03T02:16:28;5.43;;;2.50;;
28988;SDS011;16089;59.952;10.818;2023-02-03T02:19:07;6.13;;;2.10;;
28988;SDS011;16089;59.952;10.818;2023-02-03T02:21:51;7.88;;;2.33;;
28988;SDS011;16089;59.952;10.818;2023-02-03T02:27:08;6.43;;;2.47;;
28988;SDS011;16089;59.952;10.818;2023-02-03T02:29:50;5.28;;;2.25;;
28988;SDS011;16089;59.952;10.818;2023-02-03T02:32:28;6.28;;;2.20;;
28988;SDS011;16089;59.952;10.818;2023-02-03T02:34:58;6.32;;;2.25;;
28988;SDS011;16089;59.952;10.818;2023-02-03T02:37:30;5.63;;;2.33;;
28988;SDS011;16089;59.952;10.818;2023-02-03T02:40:01;7.55;;;2.30;;
28988;SDS011;16089;59.952;10.818;2023-02-03T02:42:33;6.60;;;2.65;;
28988;SDS011;16089;59.952;10.818;2023-02-03T02:45:03;5.72;;;2.40;;
28988;SDS011;16089;59.952;10.818;2023-02-03T02:47:32;5.82;;;2.00;;
28988;SDS011;16089;59.952;10.818;2023-02-03T02:49:59;8.57;;;2.42;;
28988;SDS011;16089;59.952;10.818;2023-02-03T02:52:27;7.10;;;2.40;;
28988;SDS011;16089;59.952;10.818;2023-02-03T02:54:55;8.18;;;2.58;;
28988;SDS011;16089;59.952;10.818;2023-02-03T02:57:23;8.15;;;2.30;;
28988;SDS011;16089;59.952;10.818;2023-02-03T02:59:51;8.93;;;2.78;;
28988;SDS011;16089;59.952;10.818;2023-02-03T03:02:18;7.43;;;1.98;;
28988;SDS011;16089;59.952;10.818;2023-02-03T03:04:46;5.03;;;1.83;;
28988;SDS011;16089;59.952;10.818;2023-02-03T03:07:15;5.35;;;2.10;;
28988;SDS011;16089;59.952;10.818;2023-02-03T03:09:43;4.85;;;2.00;;
28988;SDS011;16089;59.952;10.818;2023-02-03T03:12:13;4.38;;;1.92;;
28988;SDS011;16089;59.952;10.818;2023-02-03T03:14:40;8.65;;;2.33;;
28988;SDS011;16089;59.952;10.818;2023-02-03T03:17:09;5.22;;;2.10;;
28988;SDS011;16089;59.952;10.818;2023-02-03T03:19:37;4.38;;;1.83;;
28988;SDS011;16089;59.952;10.818;2023-02-03T03:22:06;7.80;;;2.08;;
28988;SDS011;16089;59.952;10.818;2023-02-03T03:24:35;7.28;;;2.30;;
28988;SDS011;16089;59.952;10.818;2023-02-03T03:27:06;4.80;;;2.30;;
28988;SDS011;16089;59.952;10.818;2023-02-03T03:29:34;6.40;;;2.33;;
28988;SDS011;16089;59.952;10.818;2023-02-03T03:32:02;7.93;;;2.13;;
28988;SDS011;16089;59.952;10.818;2023-02-03T03:34:29;7.47;;;2.65;;
28988;SDS011;16089;59.952;10.818;2023-02-03T03:36:57;4.47;;;2.05;;
28988;SDS011;16089;59.952;10.818;2023-02-03T03:39:30;6.40;;;2.45;;
28988;SDS011;16089;59.952;10.818;2023-02-03T03:41:59;6.07;;;2.60;;
28988;SDS011;16089;59.952;10.818;2023-02-03T03:44:28;5.78;;;2.22;;
28988;SDS011;16089;59.952;10.818;2023-02-03T03:46:57;6.07;;;2.30;;
28988;SDS011;16089;59.952;10.818;2023-02-03T03:49:26;7.82;;;2.58;;
28988;SDS011;16089;59.952;10.818;2023-02-03T03:51:54;5.07;;;2.40;;
28988;SDS011;16089;59.952;10.818;2023-02-03T03:54:21;5.88;;;2.22;;
28988;SDS011;16089;59.952;10.818;2023-02-03T03:56:51;7.90;;;2.45;;
28988;SDS011;16089;59.952;10.818;2023-02-03T03:59:20;5.88;;;2.42;;
28988;SDS011;16089;59.952;10.818;2023-02-03T04:01:47;8.88;;;2.78;;
28988;SDS011;16089;59.952;10.818;2023-02-03T04:04:14;5.50;;;1.90;;
28988;SDS011;16089;59.952;10.818;2023-02-03T04:06:41;5.68;;;2.15;;
28988;SDS011;16089;59.952;10.818;2023-02-03T04:09:07;6.20;;;2.00;;
28988;SDS011;16089;59.952;10.818;2023-02-03T04:11:34;6.18;;;2.50;;
28988;SDS011;16089;59.952;10.818;2023-02-03T04:14:19;6.63;;;2.50;;
28988;SDS011;16089;59.952;10.818;2023-02-03T04:16:45;6.18;;;2.05;;
28988;SDS011;16089;59.952;10.818;2023-02-03T04:19:12;4.53;;;1.98;;
28988;SDS011;16089;59.952;10.818;2023-02-03T04:21:38;6.57;;;2.13;;
28988;SDS011;16089;59.952;10.818;2023-02-03T04:24:04;5.95;;;2.30;;
28988;SDS011;16089;59.952;10.818;2023-02-03T04:26:31;6.20;;;2.13;;
28988;SDS011;16089;59.952;10.818;2023-02-03T04:28:57;5.28;;;2.10;;
28988;SDS011;16089;59.952;10.818;2023-02-03T04:31:25;3.85;;;1.67;;
28988;SDS011;16089;59.952;10.818;2023-02-03T04:33:51;5.03;;;1.67;;
28988;SDS011;16089;59.952;10.818;2023-02-03T04:36:18;6.85;;;2.00;;
28988;SDS011;16089;59.952;10.818;2023-02-03T04:38:44;6.93;;;2.13;;
28988;SDS011;16089;59.952;10.818;2023-02-03T04:41:10;4.30;;;1.67;;
28988;SDS011;16089;59.952;10.818;2023-02-03T04:43:37;5.18;;;1.65;;
28988;SDS011;16089;59.952;10.818;2023-02-03T04:46:03;4.43;;;1.75;;
28988;SDS011;16089;59.952;10.818;2023-02-03T04:48:31;6.85;;;1.80;;
28988;SDS011;16089;59.952;10.818;2023-02-03T04:50:59;5.28;;;1.40;;
28988;SDS011;16089;59.952;10.818;2023-02-03T04:53:25;4.63;;;1.75;;
28988;SDS011;16089;59.952;10.818;2023-02-03T04:55:52;5.28;;;1.73;;
28988;SDS011;16089;59.952;10.818;2023-02-03T04:58:18;3.10;;;1.63;;
28988;SDS011;16089;59.952;10.818;2023-02-03T05:00:44;3.95;;;1.63;;
28988;SDS011;16089;59.952;10.818;2023-02-03T05:03:11;5.03;;;1.45;;
28988;SDS011;16089;59.952;10.818;2023-02-03T05:05:39;6.03;;;1.63;;
28988;SDS011;16089;59.952;10.818;2023-02-03T05:08:05;3.72;;;1.67;;
28988;SDS011;16089;59.952;10.818;2023-02-03T05:10:31;7.05;;;1.65;;
28988;SDS011;16089;59.952;10.818;2023-02-03T05:12:58;4.63;;;1.80;;
28988;SDS011;16089;59.952;10.818;2023-02-03T05:15:24;3.88;;;1.52;;
28988;SDS011;16089;59.952;10.818;2023-02-03T05:17:50;4.47;;;2.03;;
28988;SDS011;16089;59.952;10.818;2023-02-03T05:20:17;6.30;;;1.50;;
28988;SDS011;16089;59.952;10.818;2023-02-03T05:22:45;4.03;;;1.58;;
28988;SDS011;16089;59.952;10.818;2023-02-03T05:25:13;7.40;;;1.60;;
28988;SDS011;16089;59.952;10.818;2023-02-03T05:27:39;10.35;;;2.05;;
28988;SDS011;16089;59.952;10.818;2023-02-03T05:30:07;5.93;;;1.80;;
28988;SDS011;16089;59.952;10.818;2023-02-03T05:32:34;5.22;;;2.00;;
28988;SDS011;16089;59.952;10.818;2023-02-03T05:35:00;4.13;;;1.65;;
28988;SDS011;16089;59.952;10.818;2023-02-03T05:37:26;4.80;;;2.10;;
28988;SDS011;16089;59.952;10.818;2023-02-03T05:39:54;5.93;;;1.58;;
28988;SDS011;16089;59.952;10.818;2023-02-03T05:42:45;6.43;;;2.15;;
28988;SDS011;16089;59.952;10.818;2023-02-03T05:45:10;5.38;;;1.80;;
28988;SDS011;16089;59.952;10.818;2023-02-03T05:47:36;6.32;;;1.80;;
28988;SDS011;16089;59.952;10.818;2023-02-03T05:50:04;5.03;;;1.70;;
28988;SDS011;16089;59.952;10.818;2023-02-03T05:52:30;6.20;;;1.77;;
28988;SDS011;16089;59.952;10.818;2023-02-03T05:54:58;3.83;;;1.40;;
28988;SDS011;16089;59.952;10.818;2023-02-03T05:57:24;4.55;;;1.40;;
28988;SDS011;16089;59.952;10.818;2023-02-03T05:59:50;5.93;;;1.67;;
28988;SDS011;16089;59.952;10.818;2023-02-03T06:02:17;3.58;;;1.38;;
28988;SDS011;16089;59.952;10.818;2023-02-03T06:04:43;6.03;;;1.35;;
28988;SDS011;16089;59.952;10.818;2023-02-03T06:07:09;5.97;;;1.70;;
28988;SDS011;16089;59.952;10.818;2023-02-03T06:09:36;4.22;;;1.50;;
28988;SDS011;16089;59.952;10.818;2023-02-03T06:12:04;6.30;;;1.40;;
28988;SDS011;16089;59.952;10.818;2023-02-03T06:14:30;4.05;;;1.58;;
28988;SDS011;16089;59.952;10.818;2023-02-03T06:16:57;5.93;;;1.58;;
28988;SDS011;16089;59.952;10.818;2023-02-03T06:19:23;4.68;;;1.50;;
28988;SDS011;16089;59.952;10.818;2023-02-03T06:21:49;4.90;;;1.60;;
28988;SDS011;16089;59.952;10.818;2023-02-03T06:24:16;4.63;;;2.00;;
28988;SDS011;16089;59.952;10.818;2023-02-03T06:26:42;7.22;;;1.40;;
28988;SDS011;16089;59.952;10.818;2023-02-03T06:29:10;8.02;;;1.90;;
28988;SDS011;16089;59.952;10.818;2023-02-03T06:31:36;6.40;;;1.83;;
28988;SDS011;16089;59.952;10.818;2023-02-03T06:34:02;4.90;;;1.75;;
28988;SDS011;16089;59.952;10.818;2023-02-03T06:36:29;4.68;;;1.80;;
28988;SDS011;16089;59.952;10.818;2023-02-03T06:38:55;3.63;;;1.60;;
28988;SDS011;16089;59.952;10.818;2023-02-03T06:41:23;3.35;;;1.48;;
28988;SDS011;16089;59.952;10.818;2023-02-03T06:43:54;3.17;;;1.20;;
28988;SDS011;16089;59.952;10.818;2023-02-03T06:46:22;3.83;;;1.58;;
28988;SDS011;16089;59.952;10.818;2023-02-03T06:48:52;8.23;;;1.75;;
28988;SDS011;16089;59.952;10.818;2023-02-03T06:51:18;5.65;;;1.77;;
28988;SDS011;16089;59.952;10.818;2023-02-03T06:53:44;4.35;;;1.48;;
28988;SDS011;16089;59.952;10.818;2023-02-03T06:56:11;3.90;;;1.52;;
28988;SDS011;16089;59.952;10.818;2023-02-03T06:58:37;4.82;;;1.55;;
28988;SDS011;16089;59.952;10.818;2023-02-03T07:01:03;4.57;;;1.55;;
28988;SDS011;16089;59.952;10.818;2023-02-03T07:03:31;3.90;;;1.42;;
28988;SDS011;16089;59.952;10.818;2023-02-03T07:05:58;6.60;;;1.20;;
28988;SDS011;16089;59.952;10.818;2023-02-03T07:08:24;3.55;;;1.00;;
28988;SDS011;16089;59.952;10.818;2023-02-03T07:10:52;6.72;;;1.40;;
28988;SDS011;16089;59.952;10.818;2023-02-03T07:13:18;4.85;;;1.50;;
28988;SDS011;16089;59.952;10.818;2023-02-03T07:15:44;5.80;;;1.50;;
28988;SDS011;16089;59.952;10.818;2023-02-03T07:18:11;3.17;;;1.30;;
28988;SDS011;16089;59.952;10.818;2023-02-03T07:20:38;4.75;;;1.67;;
28988;SDS011;16089;59.952;10.818;2023-02-03T07:23:05;4.05;;;1.83;;
28988;SDS011;16089;59.952;10.818;2023-02-03T07:25:31;6.10;;;1.60;;
28988;SDS011;16089;59.952;10.818;2023-02-03T07:27:57;5.95;;;1.60;;
28988;SDS011;16089;59.952;10.818;2023-02-03T07:30:24;5.07;;;1.58;;
28988;SDS011;16089;59.952;10.818;2023-02-03T07:32:50;4.88;;;1.50;;
28988;SDS011;16089;59.952;10.818;2023-02-03T07:35:17;5.00;;;1.42;;
28988;SDS011;16089;59.952;10.818;2023-02-03T07:37:45;2.63;;;1.20;;
28988;SDS011;16089;59.952;10.818;2023-02-03T07:40:12;5.90;;;1.63;;
28988;SDS011;16089;59.952;10.818;2023-02-03T07:42:40;3.97;;;1.40;;
28988;SDS011;16089;59.952;10.818;2023-02-03T07:45:07;4.10;;;1.40;;
28988;SDS011;16089;59.952;10.818;2023-02-03T07:47:33;3.85;;;1.33;;
28988;SDS011;16089;59.952;10.818;2023-02-03T07:50:00;6.00;;;1.70;;
28988;SDS011;16089;59.952;10.818;2023-02-03T07:52:26;6.78;;;1.63;;
28988;SDS011;16089;59.952;10.818;2023-02-03T07:54:54;3.72;;;1.50;;
28988;SDS011;16089;59.952;10.818;2023-02-03T07:57:20;4.20;;;1.65;;
28988;SDS011;16089;59.952;10.818;2023-02-03T07:59:46;7.65;;;1.55;;
28988;SDS011;16089;59.952;10.818;2023-02-03T08:02:13;5.72;;;1.42;;
28988;SDS011;16089;59.952;10.818;2023-02-03T08:04:39;9.35;;;1.77;;
28988;SDS011;16089;59.952;10.818;2023-02-03T08:07:05;5.60;;;1.48;;
28988;SDS011;16089;59.952;10.818;2023-02-03T08:09:32;4.50;;;1.45;;
28988;SDS011;16089;59.952;10.818;2023-02-03T08:12:00;6.57;;;2.28;;
28988;SDS011;16089;59.952;10.818;2023-02-03T08:14:26;3.90;;;1.55;;
28988;SDS011;16089;59.952;10.818;2023-02-03T08:16:52;5.43;;;1.50;;
28988;SDS011;16089;59.952;10.818;2023-02-03T08:19:19;6.43;;;2.47;;
28988;SDS011;16089;59.952;10.818;2023-02-03T08:21:45;9.73;;;2.65;;
28988;SDS011;16089;59.952;10.818;2023-02-03T08:24:11;7.10;;;2.83;;
28988;SDS011;16089;59.952;10.818;2023-02-03T08:26:38;7.03;;;1.77;;
28988;SDS011;16089;59.952;10.818;2023-02-03T08:29:06;5.43;;;1.85;;
28988;SDS011;16089;59.952;10.818;2023-02-03T08:31:32;4.28;;;1.50;;
28988;SDS011;16089;59.952;10.818;2023-02-03T08:33:59;3.78;;;1.60;;
28988;SDS011;16089;59.952;10.818;2023-02-03T08:36:25;4.68;;;1.50;;
28988;SDS011;16089;59.952;10.818;2023-02-03T08:38:51;5.25;;;1.50;;
28988;SDS011;16089;59.952;10.818;2023-02-03T08:41:18;5.28;;;1.33;;
28988;SDS011;16089;59.952;10.818;2023-02-03T08:43:44;5.68;;;1.42;;
28988;SDS011;16089;59.952;10.818;2023-02-03T08:46:12;6.13;;;1.70;;
28988;SDS011;16089;59.952;10.818;2023-02-03T08:48:39;7.45;;;2.33;;
28988;SDS011;16089;59.952;10.818;2023-02-03T08:51:08;3.90;;;1.63;;
28988;SDS011;16089;59.952;10.818;2023-02-03T08:53:35;5.00;;;1.70;;
28988;SDS011;16089;59.952;10.818;2023-02-03T08:56:03;3.30;;;1.58;;
28988;SDS011;16089;59.952;10.818;2023-02-03T08:58:29;6.45;;;2.08;;
28988;SDS011;16089;59.952;10.818;2023-02-03T09:00:55;4.35;;;1.63;;
28988;SDS011;16089;59.952;10.818;2023-02-03T09:03:31;5.60;;;1.70;;
28988;SDS011;16089;59.952;10.818;2023-02-03T09:05:58;5.10;;;1.77;;
28988;SDS011;16089;59.952;10.818;2023-02-03T09:08:24;4.53;;;1.60;;
28988;SDS011;16089;59.952;10.818;2023-02-03T09:10:51;6.90;;;1.95;;
28988;SDS011;16089;59.952;10.818;2023-02-03T09:13:17;3.92;;;1.42;;
28988;SDS011;16089;59.952;10.818;2023-02-03T09:15:43;6.60;;;1.40;;
28988;SDS011;16089;59.952;10.818;2023-02-03T09:18:10;6.70;;;1.45;;
28988;SDS011;16089;59.952;10.818;2023-02-03T09:20:37;5.25;;;1.35;;
28988;SDS011;16089;59.952;10.818;2023-02-03T09:23:04;6.05;;;1.50;;
28988;SDS011;16089;59.952;10.818;2023-02-03T09:25:30;3.53;;;1.30;;
28988;SDS011;16089;59.952;10.818;2023-02-03T09:27:59;4.95;;;1.55;;
28988;SDS011;16089;59.952;10.818;2023-02-03T09:30:26;5.55;;;1.35;;
28988;SDS011;16089;59.952;10.818;2023-02-03T09:32:52;3.28;;;1.23;;
28988;SDS011;16089;59.952;10.818;2023-02-03T09:35:20;3.28;;;1.30;;
28988;SDS011;16089;59.952;10.818;2023-02-03T09:37:48;4.20;;;1.77;;
28988;SDS011;16089;59.952;10.818;2023-02-03T09:40:17;5.25;;;1.65;;
28988;SDS011;16089;59.952;10.818;2023-02-03T09:42:56;3.83;;;1.25;;
28988;SDS011;16089;59.952;10.818;2023-02-03T09:45:25;4.82;;;1.63;;
28988;SDS011;16089;59.952;10.818;2023-02-03T09:47:52;3.13;;;1.13;;
28988;SDS011;16089;59.952;10.818;2023-02-03T09:50:19;5.35;;;0.90;;
28988;SDS011;16089;59.952;10.818;2023-02-03T09:52:47;3.63;;;1.02;;
28988;SDS011;16089;59.952;10.818;2023-02-03T09:55:18;4.50;;;1.20;;
28988;SDS011;16089;59.952;10.818;2023-02-03T09:57:47;4.63;;;1.40;;
28988;SDS011;16089;59.952;10.818;2023-02-03T10:00:16;3.67;;;1.20;;
28988;SDS011;16089;59.952;10.818;2023-02-03T10:02:48;4.57;;;1.25;;
28988;SDS011;16089;59.952;10.818;2023-02-03T10:05:19;4.35;;;1.13;;
28988;SDS011;16089;59.952;10.818;2023-02-03T10:07:52;4.63;;;0.98;;
28988;SDS011;16089;59.952;10.818;2023-02-03T10:10:21;4.68;;;1.38;;
28988;SDS011;16089;59.952;10.818;2023-02-03T10:12:55;2.67;;;0.82;;
28988;SDS011;16089;59.952;10.818;2023-02-03T10:15:37;3.58;;;1.23;;
28988;SDS011;16089;59.952;10.818;2023-02-03T10:18:08;4.13;;;0.98;;
28988;SDS011;16089;59.952;10.818;2023-02-03T10:20:38;2.63;;;1.00;;
28988;SDS011;16089;59.952;10.818;2023-02-03T10:23:09;3.90;;;1.02;;
28988;SDS011;16089;59.952;10.818;2023-02-03T10:25:38;3.13;;;0.98;;
28988;SDS011;16089;59.952;10.818;2023-02-03T10:28:08;5.43;;;1.00;;
28988;SDS011;16089;59.952;10.818;2023-02-03T10:30:36;2.88;;;1.00;;
28988;SDS011;16089;59.952;10.818;2023-02-03T10:33:10;4.88;;;1.00;;
28988;SDS011;16089;59.952;10.818;2023-02-03T10:35:38;1.92;;;0.93;;
28988;SDS011;16089;59.952;10.818;2023-02-03T10:38:09;3.38;;;0.90;;
28988;SDS011;16089;59.952;10.818;2023-02-03T10:40:39;2.28;;;0.90;;
28988;SDS011;16089;59.952;10.818;2023-02-03T10:43:07;5.07;;;0.90;;
28988;SDS011;16089;59.952;10.818;2023-02-03T10:45:51;5.40;;;1.10;;
28988;SDS011;16089;59.952;10.818;2023-02-03T10:48:17;4.15;;;1.10;;
28988;SDS011;16089;59.952;10.818;2023-02-03T10:50:45;3.10;;;0.82;;
28988;SDS011;16089;59.952;10.818;2023-02-03T10:53:24;3.58;;;0.90;;
28988;SDS011;16089;59.952;10.818;2023-02-03T10:55:51;3.03;;;1.23;;
28988;SDS011;16089;59.952;10.818;2023-02-03T10:58:25;16.85;;;5.43;;
28988;SDS011;16089;59.952;10.818;2023-02-03T11:00:55;6.05;;;1.85;;
28988;SDS011;16089;59.952;10.818;2023-02-03T11:03:22;3.50;;;1.13;;
28988;SDS011;16089;59.952;10.818;2023-02-03T11:08:39;3.90;;;1.10;;
28988;SDS011;16089;59.952;10.818;2023-02-03T11:11:06;3.08;;;0.80;;
28988;SDS011;16089;59.952;10.818;2023-02-03T11:13:33;3.33;;;0.85;;
28988;SDS011;16089;59.952;10.818;2023-02-03T11:16:01;5.10;;;1.40;;
28988;SDS011;16089;59.952;10.818;2023-02-03T11:18:34;3.00;;;1.00;;
28988;SDS011;16089;59.952;10.818;2023-02-03T11:21:05;3.10;;;1.05;;
28988;SDS011;16089;59.952;10.818;2023-02-03T11:23:31;2.53;;;0.80;;
28988;SDS011;16089;59.952;10.818;2023-02-03T11:25:59;3.97;;;0.90;;
28988;SDS011;16089;59.952;10.818;2023-02-03T11:28:34;2.95;;;1.10;;
28988;SDS011;16089;59.952;10.818;2023-02-03T11:31:00;4.25;;;0.88;;
28988;SDS011;16089;59.952;10.818;2023-02-03T11:33:27;2.80;;;1.00;;
28988;SDS011;16089;59.952;10.818;2023-02-03T11:35:55;4.32;;;0.90;;
28988;SDS011;16089;59.952;10.818;2023-02-03T11:38:28;2.55;;;0.75;;
28988;SDS011;16089;59.952;10.818;2023-02-03T11:40:57;5.75;;;1.00;;
28988;SDS011;16089;59.952;10.818;2023-02-03T11:43:26;3.83;;;0.80;;
28988;SDS011;16089;59.952;10.818;2023-02-03T11:45:58;2.75;;;0.90;;
28988;SDS011;16089;59.952;10.818;2023-02-03T11:48:25;2.70;;;0.90;;
28988;SDS011;16089;59.952;10.818;2023-02-03T11:50:55;4.25;;;0.85;;
28988;SDS011;16089;59.952;10.818;2023-02-03T11:53:28;3.65;;;1.65;;
28988;SDS011;16089;59.952;10.818;2023-02-03T11:56:02;10.43;;;3.28;;
28988;SDS011;16089;59.952;10.818;2023-02-03T11:58:43;2.97;;;0.95;;
28988;SDS011;16089;59.952;10.818;2023-02-03T12:01:13;2.42;;;0.80;;
28988;SDS011;16089;59.952;10.818;2023-02-03T12:03:52;2.00;;;0.80;;
28988;SDS011;16089;59.952;10.818;2023-02-03T12:06:29;3.75;;;1.23;;
28988;SDS011;16089;59.952;10.818;2023-02-03T12:09:02;5.47;;;1.80;;
28988;SDS011;16089;59.952;10.818;2023-02-03T12:11:35;2.47;;;0.88;;
28988;SDS011;16089;59.952;10.818;2023-02-03T12:14:10;5.35;;;0.93;;
28988;SDS011;16089;59.952;10.818;2023-02-03T12:16:48;5.03;;;0.80;;
28988;SDS011;16089;59.952;10.818;2023-02-03T12:19:21;2.83;;;0.80;;
28988;SDS011;16089;59.952;10.818;2023-02-03T12:21:49;3.10;;;0.90;;
28988;SDS011;16089;59.952;10.818;2023-02-03T12:24:21;3.35;;;0.82;;
28988;SDS011;16089;59.952;10.818;2023-02-03T12:26:49;2.67;;;1.00;;
28988;SDS011;16089;59.952;10.818;2023-02-03T12:29:20;2.10;;;0.70;;
28988;SDS011;16089;59.952;10.818;2023-02-03T12:31:53;2.30;;;0.70;;
28988;SDS011;16089;59.952;10.818;2023-02-03T12:34:22;2.33;;;0.80;;
28988;SDS011;16089;59.952;10.818;2023-02-03T12:36:51;3.03;;;1.00;;
28988;SDS011;16089;59.952;10.818;2023-02-03T12:39:20;1.80;;;0.80;;
28988;SDS011;16089;59.952;10.818;2023-02-03T12:41:49;3.13;;;1.00;;
28988;SDS011;16089;59.952;10.818;2023-02-03T12:44:18;3.03;;;0.80;;
28988;SDS011;16089;59.952;10.818;2023-02-03T12:46:47;3.38;;;1.00;;
28988;SDS011;16089;59.952;10.818;2023-02-03T12:49:20;3.65;;;0.85;;
28988;SDS011;16089;59.952;10.818;2023-02-03T12:51:50;3.05;;;0.75;;
28988;SDS011;16089;59.952;10.818;2023-02-03T12:54:24;6.25;;;1.00;;
28988;SDS011;16089;59.952;10.818;2023-02-03T12:56:53;2.40;;;0.80;;
28988;SDS011;16089;59.952;10.818;2023-02-03T12:59:21;2.53;;;0.70;;
28988;SDS011;16089;59.952;10.818;2023-02-03T13:01:50;4.00;;;0.95;;
28988;SDS011;16089;59.952;10.818;2023-02-03T13:04:22;3.35;;;0.82;;
28988;SDS011;16089;59.952;10.818;2023-02-03T13:06:51;3.80;;;0.80;;
28988;SDS011;16089;59.952;10.818;2023-02-03T13:09:24;3.65;;;0.68;;
28988;SDS011;16089;59.952;10.818;2023-02-03T13:11:55;2.38;;;0.80;;
28988;SDS011;16089;59.952;10.818;2023-02-03T13:14:23;2.28;;;0.70;;
28988;SDS011;16089;59.952;10.818;2023-02-03T13:16:54;2.55;;;0.70;;
28988;SDS011;16089;59.952;10.818;2023-02-03T13:19:21;2.83;;;0.60;;
28988;SDS011;16089;59.952;10.818;2023-02-03T13:21:50;2.88;;;1.17;;
28988;SDS011;16089;59.952;10.818;2023-02-03T13:24:16;3.83;;;0.60;;
28988;SDS011;16089;59.952;10.818;2023-02-03T13:26:47;2.63;;;0.68;;
28988;SDS011;16089;59.952;10.818;2023-02-03T13:29:22;2.88;;;0.63;;
28988;SDS011;16089;59.952;10.818;2023-02-03T13:37:07;1.13;;;0.45;;
28988;SDS011;16089;59.952;10.818;2023-02-03T13:39:39;2.30;;;0.60;;
28988;SDS011;16089;59.952;10.818;2023-02-03T13:42:11;2.10;;;0.63;;
28988;SDS011;16089;59.952;10.818;2023-02-03T13:44:42;4.00;;;0.60;;
28988;SDS011;16089;59.952;10.818;2023-02-03T13:47:12;1.75;;;0.50;;
28988;SDS011;16089;59.952;10.818;2023-02-03T13:49:40;1.30;;;0.60;;
28988;SDS011;16089;59.952;10.818;2023-02-03T13:52:23;1.50;;;0.60;;
28988;SDS011;16089;59.952;10.818;2023-02-03T13:54:50;3.75;;;1.30;;
28988;SDS011;16089;59.952;10.818;2023-02-03T13:57:18;5.45;;;1.60;;
28988;SDS011;16089;59.952;10.818;2023-02-03T13:59:46;3.03;;;0.75;;
28988;SDS011;16089;59.952;10.818;2023-02-03T14:07:56;1.60;;;0.60;;
28988;SDS011;16089;59.952;10.818;2023-02-03T14:10:23;3.13;;;0.80;;
28988;SDS011;16089;59.952;10.818;2023-02-03T14:12:59;2.42;;;0.60;;
28988;SDS011;16089;59.952;10.818;2023-02-03T14:15:31;1.55;;;0.52;;
28988;SDS011;16089;59.952;10.818;2023-02-03T14:18:09;2.92;;;0.73;;
28988;SDS011;16089;59.952;10.818;2023-02-03T14:20:54;2.00;;;0.63;;
28988;SDS011;16089;59.952;10.818;2023-02-03T14:23:25;3.13;;;0.60;;
28988;SDS011;16089;59.952;10.818;2023-02-03T14:25:53;1.80;;;0.60;;
28988;SDS011;16089;59.952;10.818;2023-02-03T14:28:21;1.58;;;0.60;;
28988;SDS011;16089;59.952;10.818;2023-02-03T14:31:01;2.72;;;0.52;;
28988;SDS011;16089;59.952;10.818;2023-02-03T14:36:24;4.13;;;0.98;;
28988;SDS011;16089;59.952;10.818;2023-02-03T14:38:52;1.60;;;0.60;;
28988;SDS011;16089;59.952;10.818;2023-02-03T14:41:20;1.85;;;0.52;;
28988;SDS011;16089;59.952;10.818;2023-02-03T14:43:50;2.22;;;0.60;;
28988;SDS011;16089;59.952;10.818;2023-02-03T14:46:34;3.63;;;0.50;;
28988;SDS011;16089;59.952;10.818;2023-02-03T14:49:16;0.82;;;0.40;;
28988;SDS011;16089;59.952;10.818;2023-02-03T14:51:49;3.25;;;0.60;;
28988;SDS011;16089;59.952;10.818;2023-02-03T14:54:25;2.10;;;0.45;;
28988;SDS011;16089;59.952;10.818;2023-02-03T14:56:59;2.10;;;0.60;;
28988;SDS011;16089;59.952;10.818;2023-02-03T14:59:44;1.83;;;0.50;;
28988;SDS011;16089;59.952;10.818;2023-02-03T15:02:19;1.13;;;0.50;;
28988;SDS011;16089;59.952;10.818;2023-02-03T15:04:47;2.50;;;0.52;;